Sonora Municipal Airport
KSOA : rendu visible

Aérodrome :











RETROUVEZ-NOUS SUR...

 
LOGIN :

S'inscrire | Disclaimer

   EN    FR    IT 

 









Légende :    VFR   VFR Marginal   IFR   IFR Intensif   IFR Très Intensif
Visi : 
Plafond : 
>= 8 km
>= 3000ft
5 à 8 km
1000 à 3000 ft
1500m à 5 km
500 à 1000 ft
800 à 1500m
200 à 500 ft
< 800m
< 200 ft
Symboles :   Orages  Brouillard  Fortes neiges  Fortes précipitations  Vent > 20 kt






- Altitude de l'aérodrome : 2140 ft


KSOA - Sonora Municipal

DERNIER METAR :
  • 072355Z AUTO 00000KT 10SM CLR 35/15 A3003 RMK AO2

METARs EXPIRÉS :
  • 072335Z AUTO 00000KT 10SM CLR 35/14 A3003 RMK AO2
  • 072315Z AUTO 00000KT 10SM CLR 35/14 A3003 RMK AO2
  • 072255Z AUTO 00000KT 10SM CLR 35/14 A3004 RMK AO2
  • 072235Z AUTO 00000KT 10SM CLR 36/15 A3004 RMK AO2
  • 072215Z AUTO 00000KT 10SM CLR 36/14 A3004 RMK AO2
  • 072155Z AUTO 00000KT CLR 35/15 A3004 RMK AO2
  • 072135Z AUTO 00000KT 10SM CLR 35/15 A3005 RMK AO2
  • 072115Z AUTO 00000KT 10SM CLR 35/15 A3006 RMK AO2

TAF KSOA
Valide du 08 à 00h jusqu'au 09 à 00h UTC


072338Z 0800/0824 17011G17KT P6SM SKC
FM080300 16006KT P6SM SKC
FM081500 17012KT P6SM SKC AMD NOT SKED
FIR KZHU / Amérique du Nord



MET'MAP, la Météo Aéronautique d'un coup d'oeil ! - Copyright ORBIFLY Décembre 2007 - Disclaimer

ORBIFLY MET'MAP TEAM :

Programmation & Développement : Alexandra Zaïnal
Sur une idée originale de : Baudouin d'Aumeries
Assistance à la programmation : Marc-Olivier Méhu
Soutien technique & logistique : Manuel Goepfert

Contact : metmap@orbifly.com




SOURCES & CREDITS :

   NOAA       Earth
Advisory